Time;durP1;ratioP1;P1;durP2;ratioP2;P2;SDS_P1;SDS_P2;PMS_P1;PMS_P2;Temp;Humidity;BMP_temperature;BMP_pressure;BME280_temperature;BME280_humidity;BME280_pressure;Samples;Min_cycle;Max_cycle;Signal;HPM_P1;HPM_P2
2022/10/06 00:01:04;;;;;;;4.93;1.20;;;15.90;99.90;;;;;;5084622;28;20197;-73
2022/10/06 00:03:36;;;;;;;4.15;1.40;;;16.00;99.90;;;;;;5081309;28;20197;-73
2022/10/06 00:06:08;;;;;;;3.08;1.17;;;15.90;99.90;;;;;;5082252;28;20222;-73
2022/10/06 00:08:40;;;;;;;5.97;1.27;;;15.90;99.90;;;;;;5082970;28;20204;-73
2022/10/06 00:11:11;;;;;;;4.93;1.20;;;15.90;99.90;;;;;;5088269;28;20207;-74
2022/10/06 00:13:42;;;;;;;5.20;1.20;;;16.00;99.90;;;;;;5082310;28;20202;-73
2022/10/06 00:16:16;;;;;;;4.63;1.08;;;16.00;99.90;;;;;;5086808;28;20193;-74
2022/10/06 00:18:47;;;;;;;1.90;1.02;;;16.00;99.90;;;;;;5089875;28;20258;-74
2022/10/06 00:21:17;;;;;;;5.00;1.10;;;16.10;99.90;;;;;;5084122;28;20200;-76
2022/10/06 00:23:48;;;;;;;5.93;1.10;;;16.10;99.90;;;;;;5086119;28;20203;-74
2022/10/06 00:26:19;;;;;;;3.28;1.08;;;16.10;99.90;;;;;;5084618;28;20204;-74
2022/10/06 00:28:50;;;;;;;4.85;1.00;;;16.20;99.90;;;;;;5085936;28;20208;-73
2022/10/06 00:31:23;;;;;;;3.42;1.00;;;16.20;99.90;;;;;;5084386;28;20242;-73
2022/10/06 00:33:54;;;;;;;3.05;0.90;;;16.30;99.90;;;;;;5086061;28;20736;-74
2022/10/06 00:36:24;;;;;;;3.67;1.00;;;16.30;99.90;;;;;;5084776;28;20201;-74
2022/10/06 00:38:55;;;;;;;1.65;0.90;;;16.40;99.90;;;;;;5083687;28;20207;-75
2022/10/06 00:41:26;;;;;;;2.45;0.88;;;16.50;99.90;;;;;;5083224;28;20218;-72
2022/10/06 00:43:58;;;;;;;4.55;1.35;;;16.60;99.90;;;;;;5084585;28;20204;-74
2022/10/06 00:46:36;;;;;;;3.65;1.08;;;16.50;99.90;;;;;;5082080;28;20213;-76
2022/10/06 00:49:17;;;;;;;7.28;1.20;;;16.60;99.90;;;;;;5081780;28;20218;-73
2022/10/06 00:51:50;;;;;;;4.30;1.20;;;16.60;99.90;;;;;;5080644;28;20267;-75
2022/10/06 00:54:22;;;;;;;3.33;1.23;;;16.60;99.90;;;;;;5083309;28;20216;-72
2022/10/06 00:56:53;;;;;;;3.47;1.10;;;16.60;99.90;;;;;;5083506;28;20192;-72
2022/10/06 00:59:24;;;;;;;5.05;1.00;;;16.60;99.90;;;;;;5084205;28;20191;-74
2022/10/06 01:02:02;;;;;;;4.22;1.13;;;16.60;99.90;;;;;;5081354;28;20196;-76
2022/10/06 01:04:36;;;;;;;4.03;1.00;;;16.70;99.90;;;;;;5084170;28;20195;-76
2022/10/06 01:07:08;;;;;;;5.88;1.20;;;16.60;99.90;;;;;;5080572;28;20214;-75
2022/10/06 01:09:39;;;;;;;4.78;1.25;;;16.60;99.90;;;;;;5086869;28;20245;-74
2022/10/06 01:12:11;;;;;;;5.45;1.40;;;16.60;99.90;;;;;;5081761;28;20189;-74
2022/10/06 01:14:44;;;;;;;2.90;1.20;;;16.60;99.90;;;;;;5081578;28;20260;-74
2022/10/06 01:17:22;;;;;;;3.60;1.23;;;16.70;99.90;;;;;;5076003;28;20682;-75
2022/10/06 01:19:56;;;;;;;2.95;1.30;;;16.80;99.90;;;;;;5084234;28;20199;-74
2022/10/06 01:22:35;;;;;;;6.32;1.10;;;16.80;99.90;;;;;;5079221;28;20193;-74
2022/10/06 01:25:06;;;;;;;6.03;1.15;;;16.80;99.90;;;;;;5085380;28;20189;-75
2022/10/06 01:27:40;;;;;;;4.22;1.08;;;16.90;99.90;;;;;;5083894;28;20212;-75
2022/10/06 01:30:15;;;;;;;3.15;1.10;;;17.00;99.90;;;;;;5084750;28;20197;-75
2022/10/06 01:32:46;;;;;;;2.83;1.00;;;17.00;99.90;;;;;;5083666;28;20203;-75
2022/10/06 01:35:17;;;;;;;4.68;1.02;;;17.00;99.90;;;;;;5079987;28;20224;-76
2022/10/06 01:37:50;;;;;;;3.67;1.42;;;17.00;99.90;;;;;;5022287;22;20686;-69
2022/10/06 01:40:21;;;;;;;5.03;1.17;;;17.00;99.90;;;;;;4981542;28;20224;-70
2022/10/06 01:42:52;;;;;;;3.78;0.90;;;16.90;99.90;;;;;;4982874;28;20195;-70
2022/10/06 01:45:22;;;;;;;3.42;0.80;;;16.80;99.90;;;;;;4988038;28;20192;-73
2022/10/06 01:47:53;;;;;;;4.20;1.00;;;16.70;99.90;;;;;;4986043;28;20215;-73
2022/10/06 01:50:24;;;;;;;2.35;1.02;;;16.70;99.90;;;;;;4990308;28;20195;-73
2022/10/06 01:52:57;;;;;;;2.53;0.70;;;16.70;99.90;;;;;;4990364;28;20226;-73
2022/10/06 01:55:28;;;;;;;2.10;0.90;;;16.70;99.90;;;;;;4988183;28;20195;-73
2022/10/06 01:57:58;;;;;;;4.78;0.82;;;16.70;99.90;;;;;;4987555;28;20195;-73
2022/10/06 02:00:29;;;;;;;3.42;0.95;;;16.70;99.90;;;;;;4986614;28;20214;-72
2022/10/06 02:03:00;;;;;;;3.78;0.90;;;16.80;99.90;;;;;;4995132;28;20204;-72
2022/10/06 02:05:31;;;;;;;2.35;0.77;;;16.80;99.90;;;;;;4992239;28;20199;-72
2022/10/06 02:08:03;;;;;;;2.55;0.80;;;16.80;99.90;;;;;;4987423;28;21214;-72
2022/10/06 02:10:34;;;;;;;2.72;1.15;;;16.80;99.90;;;;;;4988491;28;20202;-71
2022/10/06 02:13:05;;;;;;;4.97;1.52;;;16.70;99.90;;;;;;4986537;28;20202;-71
2022/10/06 02:15:36;;;;;;;1.90;1.60;;;16.70;99.90;;;;;;4988170;28;20195;-73
2022/10/06 02:18:07;;;;;;;2.03;1.20;;;16.60;99.90;;;;;;4989335;28;20191;-73
2022/10/06 02:20:39;;;;;;;10.57;5.25;;;16.60;99.90;;;;;;4981812;28;20192;-74
2022/10/06 02:23:11;;;;;;;3.53;1.90;;;16.60;99.90;;;;;;4985195;28;20246;-75
2022/10/06 02:25:42;;;;;;;4.65;1.30;;;16.60;99.90;;;;;;4982083;28;20219;-74
2022/10/06 02:28:13;;;;;;;1.67;1.10;;;16.60;99.90;;;;;;4983647;28;20219;-74
2022/10/06 02:30:44;;;;;;;3.60;1.23;;;16.60;99.90;;;;;;4979376;28;20207;-74
2022/10/06 02:33:15;;;;;;;2.88;0.90;;;16.70;99.90;;;;;;4977191;28;20207;-70
2022/10/06 02:35:46;;;;;;;1.17;0.80;;;16.70;99.90;;;;;;4985761;28;20761;-75
2022/10/06 02:38:18;;;;;;;3.67;0.70;;;16.70;99.90;;;;;;4987853;28;20753;-74
2022/10/06 02:40:49;;;;;;;4.20;0.90;;;16.70;99.90;;;;;;4982516;28;20667;-75
2022/10/06 02:43:20;;;;;;;3.10;0.98;;;16.60;99.90;;;;;;4988476;28;20206;-74
2022/10/06 02:45:56;;;;;;;2.95;0.80;;;16.60;99.90;;;;;;4991752;28;20203;-76
2022/10/06 02:48:28;;;;;;;2.88;0.90;;;16.60;99.90;;;;;;4989063;28;20226;-74
2022/10/06 02:51:00;;;;;;;5.30;1.02;;;16.60;99.90;;;;;;4987067;28;20200;-74
2022/10/06 02:53:33;;;;;;;4.53;0.90;;;16.60;99.90;;;;;;4992648;28;20219;-74
2022/10/06 02:56:04;;;;;;;5.85;1.33;;;16.60;99.90;;;;;;4986020;28;20200;-73
2022/10/06 02:58:36;;;;;;;2.15;0.90;;;16.60;99.90;;;;;;4995464;28;20195;-74
2022/10/06 03:01:07;;;;;;;4.47;1.02;;;16.60;99.90;;;;;;4982373;28;20199;-74
2022/10/06 03:03:38;;;;;;;2.38;1.00;;;16.70;99.90;;;;;;4990530;28;20199;-73
2022/10/06 03:06:20;;;;;;;3.55;1.10;;;16.60;99.90;;;;;;4989899;28;20192;-75
2022/10/06 03:08:54;;;;;;;2.22;1.13;;;16.70;99.90;;;;;;4991998;28;20334;-75
2022/10/06 03:11:26;;;;;;;4.47;1.42;;;16.70;99.90;;;;;;4990377;28;20199;-73
2022/10/06 03:13:57;;;;;;;4.78;1.40;;;16.70;99.90;;;;;;4996165;28;20673;-75
2022/10/06 03:16:29;;;;;;;2.60;1.52;;;16.70;99.90;;;;;;4994724;28;20211;-73
2022/10/06 03:19:00;;;;;;;2.50;1.45;;;16.80;99.90;;;;;;4995603;28;20211;-76
2022/10/06 03:21:32;;;;;;;4.53;1.38;;;16.70;99.90;;;;;;4996126;28;20195;-75
2022/10/06 03:24:05;;;;;;;3.25;1.23;;;16.80;99.90;;;;;;4994852;28;20199;-75
2022/10/06 03:26:37;;;;;;;5.03;1.40;;;16.80;99.90;;;;;;4998871;28;20214;-76
2022/10/06 03:29:08;;;;;;;2.35;1.20;;;16.80;99.90;;;;;;4995174;28;20219;-71
2022/10/06 03:31:39;;;;;;;3.88;1.40;;;16.70;99.90;;;;;;5000498;28;20199;-70
2022/10/06 03:34:09;;;;;;;3.58;1.40;;;16.80;99.90;;;;;;4991141;28;20207;-70
2022/10/06 03:36:40;;;;;;;8.00;1.65;;;16.90;99.90;;;;;;4986398;28;20593;-70
2022/10/06 03:39:13;;;;;;;3.33;1.30;;;16.90;99.90;;;;;;4995766;28;20195;-73
2022/10/06 03:41:45;;;;;;;3.60;1.20;;;16.90;99.90;;;;;;4991547;28;20214;-70
2022/10/06 03:44:15;;;;;;;4.40;1.45;;;16.90;99.90;;;;;;4990019;28;20194;-69
2022/10/06 03:46:46;;;;;;;6.22;1.60;;;16.90;99.90;;;;;;4991380;28;20218;-71
2022/10/06 03:49:17;;;;;;;5.18;1.20;;;16.90;99.90;;;;;;4997556;28;20215;-71
2022/10/06 03:51:48;;;;;;;5.05;1.20;;;16.90;99.90;;;;;;4993635;28;20206;-71
2022/10/06 03:54:20;;;;;;;2.72;1.30;;;16.90;99.90;;;;;;4994287;28;20286;-71
2022/10/06 03:56:51;;;;;;;3.83;1.20;;;17.00;99.90;;;;;;4992151;28;20199;-70
2022/10/06 03:59:22;;;;;;;5.55;1.33;;;17.00;99.90;;;;;;4992329;28;20206;-70
2022/10/06 04:01:54;;;;;;;5.18;1.30;;;17.00;99.90;;;;;;4989703;28;20196;-70
2022/10/06 04:04:26;;;;;;;4.53;1.40;;;16.90;99.90;;;;;;4993186;28;20200;-74
2022/10/06 04:06:57;;;;;;;5.28;1.25;;;16.80;99.90;;;;;;4994244;28;20298;-70
2022/10/06 04:09:29;;;;;;;2.90;0.95;;;16.80;99.90;;;;;;4994618;28;20207;-74
2022/10/06 04:12:00;;;;;;;4.97;1.30;;;16.80;99.90;;;;;;4994586;28;20743;-70
2022/10/06 04:14:31;;;;;;;4.45;1.60;;;16.80;99.90;;;;;;4995248;28;20560;-70
2022/10/06 04:17:02;;;;;;;3.15;1.30;;;16.80;99.90;;;;;;4994936;28;20188;-70
2022/10/06 04:19:32;;;;;;;6.55;1.52;;;16.80;99.90;;;;;;4995053;28;20195;-69
2022/10/06 04:22:03;;;;;;;4.72;1.38;;;16.90;99.90;;;;;;4995389;28;20199;-69
2022/10/06 04:24:36;;;;;;;6.65;1.75;;;17.00;99.90;;;;;;4995036;28;20554;-69
2022/10/06 04:29:53;;;;;;;6.05;1.30;;;17.10;99.90;;;;;;4995278;28;20194;-69
2022/10/06 04:32:24;;;;;;;7.35;1.27;;;17.10;99.90;;;;;;4995039;28;20192;-70
2022/10/06 04:34:54;;;;;;;5.93;1.27;;;17.10;99.90;;;;;;4994796;28;20200;-70
2022/10/06 04:37:27;;;;;;;3.10;1.10;;;17.10;99.90;;;;;;4993746;28;20239;-71
2022/10/06 04:39:59;;;;;;;4.15;1.10;;;17.20;99.90;;;;;;4994218;28;20281;-70
2022/10/06 04:42:31;;;;;;;3.22;1.20;;;17.20;99.90;;;;;;4994751;28;20262;-70
2022/10/06 04:45:02;;;;;;;8.43;1.30;;;17.30;99.90;;;;;;4994922;28;20666;-70
2022/10/06 04:47:32;;;;;;;4.53;1.30;;;17.30;99.90;;;;;;4994381;28;20675;-69
2022/10/06 04:50:03;;;;;;;5.05;1.38;;;17.30;99.90;;;;;;4994806;28;20192;-69
2022/10/06 04:52:34;;;;;;;5.65;1.30;;;17.30;99.90;;;;;;4993459;28;20199;-69
2022/10/06 04:55:07;;;;;;;5.28;1.40;;;17.30;99.90;;;;;;4994543;28;20202;-69
2022/10/06 04:57:38;;;;;;;2.97;1.25;;;17.30;99.90;;;;;;4994463;28;20200;-69
2022/10/06 05:00:26;;;;;;;2.97;1.40;;;17.30;99.90;;;;;;4994504;28;20202;-69
2022/10/06 05:02:57;;;;;;;5.28;1.30;;;17.20;99.90;;;;;;4994667;28;20200;-71
2022/10/06 05:05:27;;;;;;;4.75;1.45;;;17.20;99.90;;;;;;4994525;28;20718;-69
2022/10/06 05:07:58;;;;;;;3.13;1.15;;;17.20;99.90;;;;;;4989213;28;20281;-70
2022/10/06 05:10:31;;;;;;;5.07;1.20;;;17.20;99.90;;;;;;4994558;28;20200;-69
2022/10/06 05:13:02;;;;;;;5.82;1.23;;;17.20;99.90;;;;;;4992584;28;20659;-70
2022/10/06 05:15:33;;;;;;;6.07;1.10;;;17.20;99.90;;;;;;4991718;28;20207;-69
2022/10/06 05:18:04;;;;;;;4.03;1.30;;;17.20;99.90;;;;;;4991719;28;20200;-70
2022/10/06 05:20:34;;;;;;;2.15;1.00;;;17.20;99.90;;;;;;4981956;28;20570;-70
2022/10/06 05:23:09;;;;;;;4.43;1.33;;;17.20;99.90;;;;;;4990143;28;20696;-71
2022/10/06 05:25:51;;;;;;;2.65;1.10;;;17.20;99.90;;;;;;4993854;28;20223;-71
2022/10/06 05:28:22;;;;;;;3.15;1.17;;;17.20;99.90;;;;;;4993167;28;20656;-71
2022/10/06 05:31:00;;;;;;;5.82;1.33;;;17.20;99.90;;;;;;4993343;28;20233;-70
2022/10/06 05:33:33;;;;;;;5.72;1.02;;;17.30;99.90;;;;;;4993818;28;20192;-71
2022/10/06 05:36:06;;;;;;;2.33;1.10;;;17.30;99.90;;;;;;4991126;28;20223;-70
2022/10/06 05:38:41;;;;;;;4.13;1.20;;;17.30;99.90;;;;;;4989008;28;20183;-70
2022/10/06 05:41:14;;;;;;;5.05;1.15;;;17.30;99.90;;;;;;4987063;28;20191;-71
2022/10/06 05:43:45;;;;;;;4.93;1.25;;;17.20;99.90;;;;;;4990439;28;20219;-74
2022/10/06 05:46:19;;;;;;;8.48;1.50;;;17.10;99.90;;;;;;4993454;28;20204;-70
2022/10/06 05:48:51;;;;;;;5.45;1.23;;;17.10;99.90;;;;;;4992848;28;20215;-70
2022/10/06 05:51:22;;;;;;;3.25;1.17;;;17.10;99.90;;;;;;4997031;28;20275;-70
2022/10/06 05:53:53;;;;;;;5.85;1.15;;;17.10;99.90;;;;;;4993900;28;20557;-69
2022/10/06 05:56:27;;;;;;;5.55;1.20;;;17.20;99.90;;;;;;4992595;28;20207;-70
2022/10/06 05:58:58;;;;;;;4.45;1.25;;;17.20;99.90;;;;;;4991313;28;20196;-75
2022/10/06 06:01:30;;;;;;;3.05;1.13;;;17.30;99.90;;;;;;4993017;28;20210;-73
2022/10/06 06:04:02;;;;;;;2.47;1.27;;;17.30;99.90;;;;;;4993090;28;20203;-76
2022/10/06 06:06:34;;;;;;;5.65;1.50;;;17.30;99.90;;;;;;4987380;28;20711;-74
2022/10/06 06:09:07;;;;;;;5.65;1.65;;;17.30;99.90;;;;;;4988605;28;20219;-74
2022/10/06 06:11:41;;;;;;;6.72;1.30;;;17.30;99.90;;;;;;4992684;28;20199;-76
2022/10/06 06:14:13;;;;;;;6.35;1.58;;;17.30;99.90;;;;;;4991703;28;20318;-75
2022/10/06 06:16:43;;;;;;;3.08;1.23;;;17.30;99.90;;;;;;4991919;28;20199;-73
2022/10/06 06:19:15;;;;;;;4.55;1.50;;;17.30;99.90;;;;;;4990519;28;20230;-74
2022/10/06 06:21:45;;;;;;;4.80;1.58;;;17.30;99.90;;;;;;4987768;28;20279;-73
2022/10/06 06:24:16;;;;;;;5.55;1.50;;;17.30;99.90;;;;;;4992006;28;20246;-72
2022/10/06 06:26:49;;;;;;;3.50;1.50;;;17.30;99.90;;;;;;4993458;28;20651;-74
2022/10/06 06:29:19;;;;;;;4.15;1.60;;;17.40;99.90;;;;;;4994402;28;20215;-75
2022/10/06 06:31:50;;;;;;;3.30;1.40;;;17.40;99.90;;;;;;4995500;28;20210;-74
2022/10/06 06:34:21;;;;;;;6.45;1.40;;;17.40;99.90;;;;;;5009231;28;20553;-73
2022/10/06 06:36:54;;;;;;;5.15;1.45;;;17.40;99.90;;;;;;5000563;28;20239;-71
2022/10/06 06:39:24;;;;;;;5.57;1.55;;;17.40;99.90;;;;;;4996420;28;20226;-74
2022/10/06 06:41:57;;;;;;;4.88;1.65;;;17.40;99.90;;;;;;4997008;28;20195;-70
2022/10/06 06:44:28;;;;;;;3.58;1.60;;;17.40;99.90;;;;;;4996776;28;20528;-69
2022/10/06 06:47:00;;;;;;;3.40;1.45;;;17.40;99.90;;;;;;4996154;28;20211;-71
2022/10/06 06:49:30;;;;;;;3.30;1.38;;;17.40;99.90;;;;;;4980821;28;20326;-70
2022/10/06 06:52:02;;;;;;;5.05;1.50;;;17.40;99.90;;;;;;4993144;28;20211;-69
2022/10/06 06:54:32;;;;;;;5.50;1.20;;;17.40;99.90;;;;;;4990545;28;20200;-70
2022/10/06 06:57:05;;;;;;;7.15;1.40;;;17.40;99.90;;;;;;4995460;28;20196;-70
2022/10/06 06:59:37;;;;;;;4.60;1.30;;;17.30;99.90;;;;;;4994462;28;20275;-70
2022/10/06 07:02:07;;;;;;;5.20;1.20;;;17.30;99.90;;;;;;4987475;28;20196;-70
2022/10/06 07:04:38;;;;;;;6.13;1.30;;;17.30;99.90;;;;;;4988798;28;20218;-71
2022/10/06 07:07:09;;;;;;;6.50;1.33;;;17.20;99.90;;;;;;4996392;28;20198;-69
2022/10/06 07:09:39;;;;;;;6.65;1.48;;;17.20;99.90;;;;;;4998036;28;20219;-71
2022/10/06 07:12:12;;;;;;;6.13;1.30;;;17.20;99.90;;;;;;5007302;28;20200;-71
2022/10/06 07:25:05;;;;;;;10.43;1.40;;;17.20;99.90;;;;;;4995688;28;20188;-71
2022/10/06 07:25:54;;;;;;;9.23;2.63;;;17.20;99.90;;;;;;4995478;28;20239;-71
2022/10/06 07:28:29;;;;;;;13.82;2.30;;;17.20;99.90;;;;;;4994033;28;20710;-69
2022/10/06 07:31:01;;;;;;;10.23;2.20;;;17.10;99.90;;;;;;4995613;28;20677;-69
2022/10/06 07:33:32;;;;;;;7.03;2.35;;;17.10;99.90;;;;;;4992554;28;20247;-70
2022/10/06 07:38:38;;;;;;;4.80;1.55;;;17.00;99.90;;;;;;5037294;22;20783;-74
2022/10/06 07:41:09;;;;;;;5.40;1.20;;;17.00;99.90;;;;;;5033025;28;20566;-75
2022/10/06 07:43:42;;;;;;;4.15;1.20;;;17.00;99.90;;;;;;5032091;28;20194;-74
2022/10/06 07:46:13;;;;;;;4.22;1.08;;;17.00;99.90;;;;;;5024815;28;20195;-75
2022/10/06 07:48:45;;;;;;;5.13;1.20;;;16.90;99.90;;;;;;5033447;28;20214;-75
2022/10/06 07:51:17;;;;;;;6.32;1.30;;;16.90;99.90;;;;;;5028992;28;20199;-75
2022/10/06 07:53:49;;;;;;;6.47;1.42;;;16.90;99.90;;;;;;5029795;28;20198;-75
2022/10/06 07:56:21;;;;;;;6.05;1.48;;;16.90;99.90;;;;;;5028436;28;20201;-75
2022/10/06 07:58:54;;;;;;;6.60;1.73;;;16.90;99.90;;;;;;5028352;28;20259;-75
2022/10/06 08:01:28;;;;;;;4.63;1.25;;;16.90;99.90;;;;;;5023566;28;20221;-75
2022/10/06 08:03:58;;;;;;;8.90;1.67;;;16.80;99.90;;;;;;5026441;28;20190;-75
2022/10/06 08:06:29;;;;;;;6.90;1.50;;;16.80;99.90;;;;;;5027920;28;20211;-75
2022/10/06 08:09:00;;;;;;;6.07;1.40;;;16.80;99.90;;;;;;5022724;28;20226;-75
2022/10/06 08:11:31;;;;;;;6.47;1.80;;;16.80;99.90;;;;;;5028108;28;20194;-74
2022/10/06 08:14:04;;;;;;;6.95;1.77;;;16.80;99.90;;;;;;5027527;28;20195;-75
2022/10/06 08:16:35;;;;;;;8.88;2.13;;;16.70;99.90;;;;;;5020041;28;20203;-77
2022/10/06 08:19:06;;;;;;;8.18;2.25;;;16.70;99.90;;;;;;5028249;28;20191;-75
2022/10/06 08:21:38;;;;;;;8.27;2.08;;;16.80;99.90;;;;;;5024038;28;20270;-75
2022/10/06 08:24:09;;;;;;;7.53;2.20;;;16.70;99.90;;;;;;5032371;28;20290;-75
2022/10/06 08:26:40;;;;;;;10.00;2.00;;;16.70;99.90;;;;;;5018747;28;20297;-75
2022/10/06 08:29:13;;;;;;;9.35;2.10;;;16.70;99.90;;;;;;5024375;28;20219;-76
2022/10/06 08:31:43;;;;;;;6.75;1.80;;;16.70;99.90;;;;;;5029739;28;20183;-75
2022/10/06 08:34:14;;;;;;;11.15;2.40;;;16.60;99.90;;;;;;5021499;28;20557;-75
2022/10/06 08:36:45;;;;;;;9.27;1.90;;;16.60;99.90;;;;;;5022966;28;20228;-75
2022/10/06 08:39:16;;;;;;;11.85;1.85;;;16.60;99.90;;;;;;5017694;28;20183;-75
2022/10/06 08:41:52;;;;;;;7.55;2.00;;;16.60;99.90;;;;;;5021292;28;20286;-76
2022/10/06 08:44:31;;;;;;;9.15;2.22;;;16.60;99.90;;;;;;5021123;28;20560;-75
2022/10/06 08:47:06;;;;;;;6.68;2.20;;;16.50;99.90;;;;;;5017848;28;20198;-75
2022/10/06 08:49:40;;;;;;;11.15;2.25;;;16.50;99.90;;;;;;5015870;28;20562;-74
2022/10/06 08:52:25;;;;;;;7.60;2.17;;;16.50;99.90;;;;;;5005555;28;20203;-75
2022/10/06 08:55:04;;;;;;;5.18;1.77;;;16.50;99.90;;;;;;5018335;28;20206;-75
2022/10/06 08:57:45;;;;;;;6.28;1.60;;;16.50;99.90;;;;;;5014651;28;20195;-75
2022/10/06 09:00:19;;;;;;;2.75;1.52;;;16.50;99.90;;;;;;5014493;28;20285;-75
2022/10/06 09:02:52;;;;;;;7.40;1.85;;;16.40;99.90;;;;;;5013172;28;20202;-75
2022/10/06 09:05:28;;;;;;;8.10;1.88;;;16.40;99.90;;;;;;5016430;28;20583;-75
2022/10/06 09:08:13;;;;;;;5.65;1.70;;;16.40;99.90;;;;;;5022769;28;20273;-75
2022/10/06 09:10:55;;;;;;;5.13;2.05;;;16.40;99.90;;;;;;5011858;28;20591;-75
2022/10/06 09:13:30;;;;;;;5.35;2.10;;;16.40;99.90;;;;;;5023773;28;20196;-75
2022/10/06 09:16:07;;;;;;;4.55;1.90;;;16.30;99.90;;;;;;5024510;28;20191;-75
2022/10/06 09:18:41;;;;;;;8.52;2.13;;;16.40;99.90;;;;;;5017667;28;20694;-75
2022/10/06 09:21:16;;;;;;;6.38;2.47;;;16.30;99.90;;;;;;5023710;28;20269;-75
2022/10/06 09:23:55;;;;;;;4.63;2.95;;;16.30;99.90;;;;;;5020090;28;20645;-76
2022/10/06 09:26:31;;;;;;;8.23;3.10;;;16.30;99.90;;;;;;5018356;28;20203;-75
2022/10/06 09:29:02;;;;;;;7.20;3.30;;;16.30;99.90;;;;;;5013448;28;20560;-75
2022/10/06 09:31:40;;;;;;;7.35;3.00;;;16.30;99.90;;;;;;5019504;28;20644;-74
2022/10/06 09:34:21;;;;;;;6.88;2.90;;;16.30;99.90;;;;;;5011482;28;20195;-75
2022/10/06 09:37:03;;;;;;;6.75;2.88;;;16.30;99.90;;;;;;5019088;28;20596;-75
2022/10/06 09:39:37;;;;;;;7.72;3.00;;;16.30;99.90;;;;;;5012860;28;20214;-75
2022/10/06 09:42:14;;;;;;;7.60;2.83;;;16.30;99.90;;;;;;5017268;28;20205;-75
2022/10/06 09:44:57;;;;;;;5.95;3.30;;;16.20;99.90;;;;;;5014143;28;20212;-75
2022/10/06 09:47:40;;;;;;;7.55;2.97;;;16.30;99.90;;;;;;5019649;28;20210;-75
2022/10/06 09:50:21;;;;;;;9.80;3.55;;;16.20;99.90;;;;;;5017103;28;20226;-76
2022/10/06 09:53:18;;;;;;;6.95;3.17;;;16.20;99.90;;;;;;5019290;28;20201;-75
2022/10/06 09:55:55;;;;;;;6.68;2.97;;;16.20;99.90;;;;;;5014560;28;20203;-76
2022/10/06 09:58:36;;;;;;;5.35;2.97;;;16.20;99.90;;;;;;5014219;28;20587;-75
2022/10/06 10:01:09;;;;;;;5.65;2.97;;;16.20;99.90;;;;;;5017269;28;20233;-75
2022/10/06 10:03:51;;;;;;;5.60;2.70;;;16.20;99.90;;;;;;5018925;28;20205;-75
2022/10/06 10:06:27;;;;;;;5.70;2.95;;;16.20;99.90;;;;;;5021043;28;20198;-75
2022/10/06 10:09:21;;;;;;;4.60;2.70;;;16.10;99.90;;;;;;5022794;28;20205;-76
2022/10/06 10:14:50;;;;;;;6.20;2.35;;;16.10;99.90;;;;;;5021123;28;20193;-76
2022/10/06 10:17:24;;;;;;;5.63;2.55;;;16.10;99.90;;;;;;5024464;28;20203;-75
2022/10/06 10:19:57;;;;;;;6.15;2.85;;;16.10;99.90;;;;;;5022685;28;20195;-76
2022/10/06 10:22:34;;;;;;;8.18;2.67;;;16.10;99.90;;;;;;5027595;28;20671;-76
2022/10/06 10:25:14;;;;;;;5.57;2.20;;;16.10;99.90;;;;;;5026645;28;20274;-76
2022/10/06 10:27:52;;;;;;;4.72;2.35;;;16.10;99.90;;;;;;5018107;28;20298;-76
2022/10/06 10:30:23;;;;;;;6.22;2.63;;;16.10;99.90;;;;;;5018826;28;20221;-75
2022/10/06 10:33:02;;;;;;;10.13;2.72;;;16.10;99.90;;;;;;5024785;28;20274;-76
2022/10/06 10:35:39;;;;;;;7.95;2.60;;;16.10;99.90;;;;;;5021327;28;20203;-75
2022/10/06 10:38:17;;;;;;;7.35;2.65;;;16.10;99.90;;;;;;5023784;28;20237;-75
2022/10/06 10:40:50;;;;;;;9.68;2.72;;;16.00;99.90;;;;;;5017749;28;20211;-75
2022/10/06 10:43:30;;;;;;;6.93;2.20;;;16.00;99.90;;;;;;5022310;28;20191;-76
2022/10/06 10:46:04;;;;;;;5.45;2.50;;;16.00;99.90;;;;;;5029114;28;20269;-75
2022/10/06 10:48:40;;;;;;;4.72;2.60;;;16.00;99.90;;;;;;5028339;28;20540;-76
2022/10/06 10:51:20;;;;;;;6.15;2.42;;;15.90;99.90;;;;;;5020251;28;20222;-76
2022/10/06 10:53:54;;;;;;;6.55;2.17;;;15.90;99.90;;;;;;5025059;28;20197;-75
2022/10/06 10:56:27;;;;;;;4.18;1.80;;;15.90;99.90;;;;;;5025510;28;20222;-75
2022/10/06 10:59:03;;;;;;;6.55;1.70;;;15.90;99.90;;;;;;5018845;28;20206;-75
2022/10/06 11:01:40;;;;;;;3.65;1.67;;;15.90;99.90;;;;;;5019062;28;20198;-75
2022/10/06 11:04:14;;;;;;;6.68;1.85;;;15.90;99.90;;;;;;5020356;28;20195;-75
2022/10/06 11:07:10;;;;;;;5.57;1.70;;;15.90;99.90;;;;;;5010942;28;20241;-75
2022/10/06 11:09:49;;;;;;;7.88;1.88;;;16.00;99.90;;;;;;5019536;28;20218;-75
2022/10/06 11:12:32;;;;;;;14.65;2.55;;;16.00;99.90;;;;;;5019685;28;20202;-76
2022/10/06 11:15:06;;;;;;;4.50;1.70;;;16.00;99.90;;;;;;5016407;28;20209;-76
2022/10/06 11:17:45;;;;;;;9.27;1.67;;;16.10;99.90;;;;;;5018420;28;20199;-74
2022/10/06 11:20:46;;;;;;;11.02;2.00;;;16.00;99.90;;;;;;5020562;28;20277;-76
2022/10/06 11:23:46;;;;;;;8.45;1.90;;;16.10;99.90;;;;;;5018355;28;20205;-76
2022/10/06 11:26:34;;;;;;;4.75;1.38;;;16.10;99.90;;;;;;5014339;28;20198;-75
2022/10/06 11:29:22;;;;;;;9.43;1.90;;;16.00;99.90;;;;;;5024649;28;20269;-76
2022/10/06 11:32:01;;;;;;;12.00;1.98;;;16.00;99.90;;;;;;5022368;28;20191;-75
2022/10/06 11:34:32;;;;;;;11.43;2.53;;;16.00;99.90;;;;;;5025822;28;20186;-76
2022/10/06 11:37:10;;;;;;;9.27;1.60;;;16.10;99.90;;;;;;5024174;28;20253;-75
2022/10/06 11:39:50;;;;;;;11.27;1.70;;;16.00;99.90;;;;;;5025905;28;20213;-76
2022/10/06 11:42:26;;;;;;;6.18;1.50;;;16.00;99.90;;;;;;5020737;28;20201;-75
2022/10/06 11:45:04;;;;;;;6.60;1.67;;;16.10;99.90;;;;;;5020380;28;20206;-75
2022/10/06 11:47:46;;;;;;;8.35;1.40;;;16.10;99.90;;;;;;5019344;28;20195;-75
2022/10/06 11:50:36;;;;;;;10.88;2.13;;;16.10;99.90;;;;;;5022075;28;20293;-76
2022/10/06 11:53:08;;;;;;;6.63;1.50;;;16.10;99.90;;;;;;5019461;28;20317;-75
2022/10/06 11:55:40;;;;;;;9.38;1.75;;;16.00;99.90;;;;;;5013675;28;20202;-75
2022/10/06 11:58:18;;;;;;;10.30;1.95;;;16.10;99.90;;;;;;5016412;28;20209;-75
2022/10/06 12:00:51;;;;;;;7.85;1.70;;;16.10;99.90;;;;;;5014661;28;20201;-76
2022/10/06 12:04:05;;;;;;;9.30;1.90;;;16.10;99.90;;;;;;5015255;28;20580;-75
2022/10/06 12:07:09;;;;;;;8.85;1.95;;;16.10;99.90;;;;;;4938671;29;20257;-76
2022/10/06 12:09:50;;;;;;;9.48;1.80;;;16.10;99.90;;;;;;5021142;28;20205;-76
2022/10/06 12:12:55;;;;;;;7.55;1.42;;;16.10;99.90;;;;;;5017715;28;20231;-75
2022/10/06 12:15:46;;;;;;;10.70;1.60;;;16.20;99.90;;;;;;5014991;28;20607;-75
2022/10/06 12:18:45;;;;;;;8.80;1.65;;;16.20;99.90;;;;;;5013998;28;20205;-76
2022/10/06 12:21:37;;;;;;;7.80;1.80;;;16.10;99.90;;;;;;5018814;28;20266;-74
2022/10/06 12:24:21;;;;;;;9.13;1.23;;;16.20;99.90;;;;;;5020183;28;20199;-75
2022/10/06 12:27:06;;;;;;;7.30;1.40;;;16.10;99.90;;;;;;5007277;28;20207;-76
2022/10/06 12:29:47;;;;;;;6.85;1.50;;;16.10;99.90;;;;;;5016288;28;20199;-75
2022/10/06 12:32:36;;;;;;;5.40;1.20;;;16.20;99.90;;;;;;5015541;28;20201;-75
2022/10/06 12:35:24;;;;;;;12.35;1.73;;;16.10;99.90;;;;;;5021644;28;20189;-76
2022/10/06 12:37:57;;;;;;;5.32;1.15;;;16.10;99.90;;;;;;5020189;28;20241;-75
2022/10/06 12:40:47;;;;;;;6.55;1.38;;;16.10;99.90;;;;;;5013103;28;20238;-75
2022/10/06 12:43:46;;;;;;;8.85;1.67;;;16.10;99.90;;;;;;5014536;28;20202;-75
2022/10/06 12:46:23;;;;;;;10.88;1.70;;;16.10;99.90;;;;;;5003961;28;20210;-75
2022/10/06 12:49:30;;;;;;;6.43;1.83;;;16.10;99.90;;;;;;5014969;28;20209;-76
2022/10/06 12:52:18;;;;;;;10.55;1.85;;;16.10;99.90;;;;;;5018618;28;20217;-75
2022/10/06 12:55:02;;;;;;;6.85;1.60;;;16.20;99.90;;;;;;5023473;28;20191;-75
2022/10/06 12:57:45;;;;;;;6.53;1.65;;;16.20;99.90;;;;;;5019352;28;20285;-75
2022/10/06 13:00:32;;;;;;;7.72;1.50;;;16.20;99.90;;;;;;5020699;28;20190;-73
2022/10/06 13:03:05;;;;;;;10.20;1.52;;;16.20;99.90;;;;;;5023073;28;20301;-75
2022/10/06 13:05:38;;;;;;;12.80;1.92;;;16.20;99.90;;;;;;5024403;28;20190;-74
2022/10/06 13:08:21;;;;;;;12.48;1.40;;;16.30;99.90;;;;;;5023459;28;20623;-75
2022/10/06 13:10:52;;;;;;;7.05;1.40;;;16.30;99.90;;;;;;5017613;28;20425;-75
2022/10/06 13:13:25;;;;;;;15.75;1.80;;;16.30;99.90;;;;;;5018369;28;20194;-75
2022/10/06 13:15:59;;;;;;;7.78;1.42;;;16.40;99.90;;;;;;5015947;28;20201;-75
2022/10/06 13:18:31;;;;;;;9.82;1.95;;;16.40;99.90;;;;;;5013047;28;20616;-75
2022/10/06 13:21:04;;;;;;;5.85;1.35;;;16.40;99.90;;;;;;5013188;28;20201;-75
2022/10/06 13:23:36;;;;;;;7.80;1.60;;;16.40;99.90;;;;;;5013094;28;20202;-75
2022/10/06 13:26:08;;;;;;;8.10;2.40;;;16.40;99.90;;;;;;5011449;28;20201;-75
2022/10/06 13:28:50;;;;;;;10.18;2.53;;;16.40;99.90;;;;;;5011387;28;20199;-74
2022/10/06 13:31:23;;;;;;;7.45;2.28;;;16.40;99.90;;;;;;5011483;28;20215;-75
2022/10/06 13:33:58;;;;;;;14.23;3.50;;;16.40;99.90;;;;;;5012970;28;20625;-75
2022/10/06 13:36:32;;;;;;;8.43;3.13;;;16.40;99.90;;;;;;5022340;22;20915;-75
2022/10/06 13:39:04;;;;;;;15.05;3.42;;;16.50;99.90;;;;;;4984444;28;20222;-75
2022/10/06 13:41:37;;;;;;;15.65;3.83;;;16.40;99.90;;;;;;4989716;28;20208;-75